Hood River, OR

10:03 PM PST on January 22, 2017 (GMT -0800)
Waterfront | | Change Station

Elev 60 ft 45.72 °N, 121.51 °W | Updated 2 minutes ago

Overcast
Overcast
35.5 °F
Feels Like 36 °F
N
2.0
Wind Variable Wind from ESE
Gusts 3.0 mph

Today
High -- | Low -- °F
--% Chance of Precip.
Yesterday
High -- | Low -- °F
Precip. -- in
Pressure 29.66 in
Visibility 3.0 miles
Clouds Overcast 200 ft
Windchill 36 °F
Dew Point 34 °F
Humidity 95%
Rainfall 0.13 in
Snow Depth Not available.
7:37 AM 4:58 PM
Waning Crescent, 21% visible
METAR KDLS 230553Z AUTO 10004KT 3SM BR OVC002 00/M01 A2965 RMK AO2 SLP044 I6001 T00001006 10039 21006 53002
Pressure 29.66 in
Visibility 3.0 miles
Clouds Overcast 200 ft
Windchill 36 °F
Dew Point 34 °F
Humidity 95%
Rainfall 0.13 in
Snow Depth Not available.
7:37 AM 4:58 PM
Waning Crescent, 21% visible
METAR KDLS 230553Z AUTO 10004KT 3SM BR OVC002 00/M01 A2965 RMK AO2 SLP044 I6001 T00001006 10039 21006 53002

Get Your Daily Forecast Email!

Thanks for signing up!

Be on the lookout for a verification email in your inbox.

You'll start receiving the daily forecast at 8 AM.

×

10-Day Weather Forecast

Almanac

Astronomy

Jan. 22, 2017 Rise Set
Actual Time
Civil Twilight
Nautical Twilight
Astronomical Twilight
Moon
Length of Visible Light
Length of Day
Tomorrow will be .
, % of the Moon is Illuminated

Today's Extremes

State Highs State Lows

Community

WunderPhotos

Upload Photos

1,962,540 photos uploaded!

WunderBlog® & News

Nearby

Air Quality

  Air Quality AQ Index Pollutant
Not available.

Snow Depth

Station Depth Elevation

Earthquake Activity

City Distance Mag. Time & Date
Minimum magnitude displayed is 2.5.

Coastal Water Temperatures

Place Temperature

Stations

Nearby Weather Stations

Station Location Temp. Windchill Dew Point Humidity Wind Precip. Elev Updated Type
                   

Watches & Warnings

There are currently no watches in effect.